Time;durP1;ratioP1;P1;durP2;ratioP2;P2;SDS_P1;SDS_P2;PMS_P1;PMS_P2;Temp;Humidity;BMP_temperature;BMP_pressure;BME280_temperature;BME280_humidity;BME280_pressure;Samples;Min_cycle;Max_cycle;Signal;HPM_P1;HPM_P2
2022/01/26 00:27:43;;;;;;;21.73;10.23;;;;;;;10.03;58.94;102584.22;4951036;28;96723;-79
2022/01/26 00:53:55;;;;;;;23.02;11.43;;;;;;;9.97;58.95;102574.56;4917845;28;97199;-79
2022/01/26 00:56:28;;;;;;;24.80;11.68;;;;;;;10.08;58.32;102576.25;4920199;28;98775;-78
2022/01/26 00:59:18;;;;;;;;;;;;;;;;;;;;;
2022/01/26 01:02:07;;;;;;;;;;;;;;;;;;;;;
2022/01/26 01:04:53;;;;;;;24.70;12.38;;;;;;;9.34;60.06;102580.84;4918817;28;126457;-80
2022/01/26 01:07:38;;;;;;;31.25;13.10;;;;;;;9.13;60.83;102581.75;4921718;28;97188;-79
2022/01/26 01:10:33;;;;;;;22.23;11.32;;;;;;;8.70;63.10;102586.16;4920778;28;95850;-79
2022/01/26 01:15:35;;;;;;;26.17;11.73;;;;;;;8.91;60.99;102585.28;5124510;23;98870;-78
2022/01/26 01:18:10;;;;;;;29.83;11.80;;;;;;;9.42;60.95;102588.78;4977383;28;98897;-79
2022/01/26 01:20:57;;;;;;;24.35;11.68;;;;;;;9.58;60.97;102585.22;4965582;28;95837;-79
2022/01/26 01:29:26;;;;;;;25.20;11.60;;;;;;;9.44;61.60;102598.44;5004088;28;95809;-79
2022/01/26 01:31:59;;;;;;;23.38;11.45;;;;;;;8.87;61.50;102587.91;5001559;28;96548;-79
2022/01/26 01:34:38;;;;;;;24.63;11.73;;;;;;;8.65;64.16;102587.03;5011132;28;98916;-80
2022/01/26 01:37:15;;;;;;;27.23;11.90;;;;;;;8.94;63.02;102582.63;4997395;28;99017;-79
2022/01/26 01:39:42;;;;;;;25.92;11.77;;;;;;;9.48;61.49;102588.75;5012048;22;97500;-79
2022/01/26 01:42:10;;;;;;;23.83;10.55;;;;;;;8.99;62.27;102577.38;4961384;28;96904;-79
2022/01/26 01:44:39;;;;;;;25.42;12.07;;;;;;;9.03;62.60;102580.00;4962390;28;96940;-78
2022/01/26 01:47:07;;;;;;;20.10;9.73;;;;;;;8.45;63.24;102578.19;4960653;28;97094;-79
2022/01/26 01:49:34;;;;;;;20.80;9.45;;;;;;;8.55;63.50;102582.59;4963790;28;96684;-78
2022/01/26 01:52:04;;;;;;;20.80;9.68;;;;;;;8.74;63.27;102572.06;4964221;28;96846;-79
2022/01/26 01:54:38;;;;;;;21.65;9.75;;;;;;;8.93;63.21;102570.31;4970066;28;99856;-79
2022/01/26 01:57:05;;;;;;;19.10;9.32;;;;;;;8.86;63.72;102570.34;4959361;28;100669;-79
2022/01/26 01:59:34;;;;;;;19.48;9.40;;;;;;;9.06;63.08;102573.84;4966918;28;99560;-79
2022/01/26 02:02:06;;;;;;;21.92;9.30;;;;;;;8.78;63.77;102562.44;4972625;28;96655;-79
2022/01/26 02:04:34;;;;;;;21.50;9.65;;;;;;;9.08;63.16;102564.19;4969684;28;97076;-79
2022/01/26 02:07:01;;;;;;;22.63;10.27;;;;;;;9.43;61.40;102557.09;4965063;28;99723;-79
2022/01/26 02:09:29;;;;;;;24.23;10.45;;;;;;;9.11;62.44;102559.81;4966246;28;96780;-80
2022/01/26 02:11:57;;;;;;;24.85;9.73;;;;;;;9.38;61.85;102555.38;4967002;28;97990;-80
2022/01/26 02:14:29;;;;;;;21.02;9.80;;;;;;;8.95;62.44;102562.44;4963529;28;100049;-79
2022/01/26 02:17:08;;;;;;;22.42;10.82;;;;;;;9.40;62.06;102559.75;4966138;28;99715;-81
2022/01/26 02:20:03;;;;;;;22.45;10.38;;;;;;;9.50;61.69;102548.31;4963377;28;96760;-79
2022/01/26 02:54:11;;;;;;;;;;;;;;;;;;;;;
2022/01/26 02:56:53;;;;;;;24.10;11.75;;;;;;;9.58;60.80;102528.03;4764032;29;112418;-80
2022/01/26 02:59:49;;;;;;;25.17;10.43;;;;;;;9.80;60.23;102533.22;4874714;28;96853;-81
2022/01/26 03:02:28;;;;;;;24.23;11.07;;;;;;;9.65;58.98;102531.50;4940834;28;100356;-80
2022/01/26 03:05:06;;;;;;;26.15;11.63;;;;;;;9.59;60.03;102536.81;4954876;28;99981;-80
2022/01/26 03:07:44;;;;;;;22.52;11.20;;;;;;;9.67;59.78;102532.41;4961040;28;95947;-81
2022/01/26 03:10:21;;;;;;;25.33;11.00;;;;;;;9.14;59.91;102529.88;4956441;28;96895;-80
2022/01/26 03:13:04;;;;;;;;;;;;;;;8.42;62.85;102525.47;4947491;28;98556;-80
2022/01/26 03:15:39;;;;;;;23.88;10.85;;;;;;;8.66;61.65;102523.75;4945518;28;98845;-80
2022/01/26 03:20:51;;;;;;;29.02;12.15;;;;;;;8.66;61.13;102525.53;4932656;28;96779;-80
2022/01/26 03:29:25;;;;;;;;;;;;;;;;;;;;;
2022/01/26 03:34:51;;;;;;;26.15;12.50;;;;;;;9.25;59.99;102519.34;4937663;28;98734;-81
2022/01/26 03:37:22;;;;;;;26.92;11.93;;;;;;;9.01;59.74;102513.19;4954199;28;97732;-80
2022/01/26 03:39:51;;;;;;;29.40;13.27;;;;;;;8.44;61.55;102511.44;4956502;28;97066;-76
2022/01/26 03:42:18;;;;;;;27.30;12.90;;;;;;;9.15;60.82;102514.06;4948539;28;97968;-77
2022/01/26 03:44:46;;;;;;;31.33;13.30;;;;;;;9.38;59.90;102518.44;4946893;28;97814;-78
2022/01/26 03:47:13;;;;;;;31.75;13.63;;;;;;;9.40;59.52;102516.66;4949951;28;99346;-78
2022/01/26 03:49:41;;;;;;;32.20;13.35;;;;;;;9.61;59.17;102503.38;4957527;28;97594;-78
2022/01/26 03:52:09;;;;;;;27.10;12.77;;;;;;;9.68;58.94;102505.13;4948456;28;96734;-79
2022/01/26 03:54:35;;;;;;;33.15;13.85;;;;;;;9.76;58.44;102499.81;4954241;28;100797;-78
2022/01/26 03:57:02;;;;;;;30.77;13.02;;;;;;;9.52;58.44;102516.59;4957855;28;96776;-78
2022/01/26 03:59:29;;;;;;;33.78;15.10;;;;;;;9.32;59.51;102513.16;4944723;28;96765;-79
2022/01/26 04:01:57;;;;;;;32.47;14.27;;;;;;;9.47;59.34;102511.34;4945898;28;96912;-78
2022/01/26 04:04:23;;;;;;;32.78;13.75;;;;;;;9.56;58.88;102515.72;4952832;28;98361;-78
2022/01/26 04:06:50;;;;;;;31.27;13.30;;;;;;;9.39;58.85;102509.59;4941500;28;97695;-78
2022/01/26 04:09:18;;;;;;;30.17;12.98;;;;;;;9.53;58.56;102505.16;4944756;28;96851;-76
2022/01/26 04:11:48;;;;;;;27.80;13.45;;;;;;;9.17;59.29;102499.13;4945539;28;96717;-77
2022/01/26 04:14:19;;;;;;;27.30;12.88;;;;;;;9.31;58.87;102503.50;4949059;28;99647;-78
2022/01/26 04:16:46;;;;;;;30.30;13.35;;;;;;;8.39;60.75;102503.56;4948794;28;97943;-77
2022/01/26 04:19:14;;;;;;;32.15;14.27;;;;;;;8.74;60.86;102511.47;4944186;28;96699;-77
2022/01/26 04:21:54;;;;;;;30.30;12.60;;;;;;;9.16;60.14;102507.03;4943281;28;97521;-78
2022/01/26 04:24:24;;;;;;;30.90;13.52;;;;;;;8.85;60.67;102502.69;4938055;28;98146;-77
2022/01/26 04:26:56;;;;;;;34.85;14.52;;;;;;;9.21;59.57;102502.63;4944682;28;98226;-77
2022/01/26 04:29:26;;;;;;;33.42;13.55;;;;;;;9.07;59.55;102501.75;4943187;28;97178;-78
2022/01/26 04:31:53;;;;;;;32.90;14.07;;;;;;;8.97;59.93;102500.91;4943094;28;96786;-79
2022/01/26 04:34:21;;;;;;;31.85;14.25;;;;;;;9.11;58.99;102501.78;4943634;28;98110;-79
2022/01/26 04:36:53;;;;;;;33.35;13.63;;;;;;;9.06;59.50;102498.25;4947467;28;100700;-79
2022/01/26 04:39:28;;;;;;;34.92;14.27;;;;;;;9.24;59.18;102499.13;4950185;28;96664;-78
2022/01/26 04:41:58;;;;;;;32.20;14.10;;;;;;;9.34;58.99;102498.19;4948096;28;96604;-79
2022/01/26 04:44:28;;;;;;;32.22;13.80;;;;;;;9.48;58.39;102492.00;4935484;28;99313;-78
2022/01/26 04:46:55;;;;;;;29.50;13.57;;;;;;;9.19;58.84;102496.47;4937918;28;98074;-78
2022/01/26 04:49:24;;;;;;;26.45;12.52;;;;;;;9.22;58.36;102490.31;4942785;28;96884;-80
2022/01/26 04:51:51;;;;;;;28.92;12.68;;;;;;;9.10;58.91;102481.56;4939016;28;96795;-82
2022/01/26 04:54:18;;;;;;;30.30;13.18;;;;;;;9.12;58.69;102492.97;4944698;28;100095;-80
2022/01/26 04:56:45;;;;;;;27.90;12.60;;;;;;;9.25;58.56;102485.03;4938826;28;99197;-80
2022/01/26 04:59:14;;;;;;;32.00;13.73;;;;;;;9.20;59.12;102488.56;4945380;28;97892;-80
2022/01/26 05:01:43;;;;;;;30.45;11.93;;;;;;;9.20;58.10;102493.81;4937348;28;96935;-80
2022/01/26 05:04:09;;;;;;;28.58;11.30;;;;;;;9.12;57.88;102482.41;4939864;28;98546;-80
2022/01/26 05:06:38;;;;;;;25.63;11.63;;;;;;;9.33;58.24;102494.69;4938091;28;101379;-80
2022/01/26 05:09:07;;;;;;;26.42;11.35;;;;;;;9.18;58.44;102484.19;4950287;28;97490;-80
2022/01/26 05:11:37;;;;;;;27.42;12.65;;;;;;;9.23;58.08;102500.88;4944358;28;98249;-80
2022/01/26 05:14:05;;;;;;;24.20;11.23;;;;;;;9.29;58.17;102487.66;4942641;28;99881;-80
2022/01/26 05:16:32;;;;;;;23.83;10.93;;;;;;;8.87;59.23;102478.06;4937975;28;100848;-81
2022/01/26 05:19:01;;;;;;;23.55;9.88;;;;;;;8.92;58.84;102470.16;4939244;28;96771;-81
2022/01/26 05:21:30;;;;;;;22.80;10.05;;;;;;;8.88;58.40;102479.81;4932505;28;96756;-80
2022/01/26 05:23:58;;;;;;;26.02;10.48;;;;;;;9.18;57.96;102477.16;4936598;28;101758;-80
2022/01/26 05:26:25;;;;;;;21.77;9.30;;;;;;;9.07;57.71;102471.00;4941071;28;98394;-80
2022/01/26 05:28:52;;;;;;;19.60;8.77;;;;;;;8.73;58.00;102470.16;4936129;28;97034;-80
2022/01/26 05:31:19;;;;;;;21.67;8.98;;;;;;;8.63;60.03;102478.09;4943677;28;96866;-79
2022/01/26 05:33:46;;;;;;;16.95;8.02;;;;;;;8.65;59.31;102476.34;4940031;28;98701;-78
2022/01/26 05:36:13;;;;;;;16.73;8.73;;;;;;;8.49;59.62;102477.19;4933383;28;101137;-77
2022/01/26 05:38:40;;;;;;;17.45;8.05;;;;;;;8.84;59.00;102472.81;4936101;28;97044;-78
2022/01/26 05:41:08;;;;;;;15.65;7.78;;;;;;;8.50;59.23;102471.06;4937355;28;98940;-78
2022/01/26 05:43:36;;;;;;;18.25;8.68;;;;;;;8.57;58.99;102475.44;4932958;28;97881;-80
2022/01/26 05:46:07;;;;;;;20.88;8.75;;;;;;;8.71;58.88;102476.34;4938353;28;99123;-78
2022/01/26 05:48:35;;;;;;;19.55;7.95;;;;;;;8.83;58.74;102481.59;4936518;28;96930;-78
2022/01/26 05:51:06;;;;;;;19.88;8.70;;;;;;;8.37;59.24;102478.06;4938027;28;98767;-78
2022/01/26 05:53:33;;;;;;;19.02;9.43;;;;;;;8.28;59.25;102475.38;4937711;28;100044;-78
2022/01/26 05:56:01;;;;;;;24.48;9.45;;;;;;;8.38;59.27;102467.53;4936830;28;99463;-78
2022/01/26 05:58:29;;;;;;;22.23;8.77;;;;;;;8.24;59.33;102468.38;4940004;28;96739;-78
2022/01/26 06:01:00;;;;;;;20.35;9.25;;;;;;;8.54;59.10;102468.41;4943520;28;96820;-80
2022/01/26 06:03:28;;;;;;;23.65;9.32;;;;;;;8.80;58.60;102471.03;4946659;28;98325;-79
2022/01/26 06:05:55;;;;;;;22.75;9.98;;;;;;;8.90;57.82;102462.25;4933414;28;99865;-77
2022/01/26 06:08:22;;;;;;;23.63;9.60;;;;;;;9.07;57.24;102465.72;4941417;28;96923;-78
2022/01/26 06:10:49;;;;;;;24.70;9.50;;;;;;;8.80;58.29;102466.66;4937880;28;96964;-78
2022/01/26 06:13:16;;;;;;;28.35;10.60;;;;;;;8.93;57.99;102467.50;4940397;28;99289;-79
2022/01/26 06:15:44;;;;;;;23.00;10.10;;;;;;;8.79;57.71;102469.31;4941803;28;97602;-79
2022/01/26 06:18:11;;;;;;;25.38;10.10;;;;;;;8.61;57.80;102469.28;4935824;28;97985;-78
2022/01/26 06:20:38;;;;;;;24.83;10.38;;;;;;;8.77;58.51;102460.50;4936668;28;98670;-79
2022/01/26 06:23:06;;;;;;;25.55;10.48;;;;;;;8.81;58.25;102456.97;4941796;28;97677;-78
2022/01/26 06:25:33;;;;;;;27.75;11.40;;;;;;;8.52;58.76;102464.91;4935807;28;101077;-78
2022/01/26 06:28:05;;;;;;;28.85;11.20;;;;;;;8.84;58.11;102461.38;4938476;28;96759;-80
2022/01/26 06:30:35;;;;;;;33.45;12.98;;;;;;;8.90;57.53;102461.38;4945451;28;96996;-79
2022/01/26 06:33:03;;;;;;;32.80;12.43;;;;;;;9.00;56.75;102466.63;4937964;28;100902;-79
2022/01/26 06:35:30;;;;;;;38.42;12.68;;;;;;;8.86;57.07;102467.53;4932745;28;98124;-79
2022/01/26 06:37:57;;;;;;;30.67;11.45;;;;;;;8.96;57.78;102453.44;4945700;28;96778;-79
2022/01/26 06:40:24;;;;;;;35.40;12.15;;;;;;;8.90;57.43;102450.81;4937762;28;97697;-79
2022/01/26 06:42:54;;;;;;;29.83;12.10;;;;;;;8.65;57.52;102444.72;4936771;28;99568;-80
2022/01/26 06:45:24;;;;;;;33.33;13.15;;;;;;;8.72;56.99;102435.94;4937427;28;100431;-79
2022/01/26 06:47:59;;;;;;;31.63;12.57;;;;;;;8.71;57.67;102439.44;4941032;28;97032;-78
2022/01/26 06:50:28;;;;;;;39.03;13.52;;;;;;;8.84;56.73;102441.19;4951075;28;96709;-79
2022/01/26 06:52:54;;;;;;;32.35;12.63;;;;;;;8.77;57.38;102442.06;4939613;28;96812;-79
2022/01/26 06:55:24;;;;;;;33.15;12.82;;;;;;;8.96;56.37;102450.81;4947171;28;97449;-79
2022/01/26 06:57:51;;;;;;;35.80;13.45;;;;;;;8.99;56.24;102440.28;4945174;28;97229;-79
2022/01/26 07:00:18;;;;;;;34.22;12.25;;;;;;;8.89;56.44;102436.75;4943777;28;96844;-83
2022/01/26 07:02:45;;;;;;;34.88;14.35;;;;;;;8.93;56.87;102446.41;4945126;28;96822;-79
2022/01/26 07:05:13;;;;;;;32.10;12.55;;;;;;;8.91;56.24;102444.69;4945064;28;99111;-77
2022/01/26 07:07:42;;;;;;;37.72;14.02;;;;;;;8.93;56.75;102450.81;4937580;28;96977;-78
2022/01/26 07:10:10;;;;;;;38.95;14.38;;;;;;;9.00;56.84;102445.53;4934131;28;98564;-77
2022/01/26 07:12:37;;;;;;;35.40;12.75;;;;;;;9.12;55.77;102448.13;4938964;28;99144;-77
2022/01/26 07:21:32;;;;;;;36.03;13.82;;;;;;;8.74;55.93;102465.78;4935006;28;97691;-82
2022/01/26 07:27:40;;;;;;;34.40;13.15;;;;;;;8.78;57.24;102464.91;4895161;28;97640;-81
2022/01/26 07:30:23;;;;;;;35.72;13.07;;;;;;;8.59;57.33;102464.03;4899359;28;96848;-77
2022/01/26 07:32:54;;;;;;;33.67;12.40;;;;;;;8.61;56.68;102456.13;4935789;28;96889;-79
2022/01/26 07:35:21;;;;;;;34.25;13.52;;;;;;;8.57;57.56;102446.47;4938451;28;98071;-79
2022/01/26 07:37:48;;;;;;;34.20;12.98;;;;;;;8.60;56.77;102451.75;4930938;28;100573;-78
2022/01/26 07:40:15;;;;;;;36.22;12.38;;;;;;;8.42;57.45;102457.88;4952073;22;97377;-76
2022/01/26 07:42:43;;;;;;;39.03;14.27;;;;;;;8.77;57.35;102444.69;4962704;28;98115;-76
2022/01/26 07:45:11;;;;;;;40.47;13.68;;;;;;;8.69;56.58;102441.19;4966959;28;98946;-76
2022/01/26 07:47:38;;;;;;;34.08;14.30;;;;;;;8.61;56.57;102446.47;4967989;28;99149;-76
2022/01/26 07:50:08;;;;;;;35.40;13.85;;;;;;;8.53;56.72;102436.81;4973946;28;97577;-77
2022/01/26 07:52:38;;;;;;;31.58;13.23;;;;;;;8.81;56.27;102441.16;4974215;28;97740;-75
2022/01/26 07:55:06;;;;;;;33.67;12.85;;;;;;;8.83;56.43;102447.31;4972481;28;99394;-76
2022/01/26 07:57:32;;;;;;;37.80;13.27;;;;;;;8.71;56.78;102457.88;4964653;28;99076;-76
2022/01/26 08:00:00;;;;;;;37.90;13.70;;;;;;;8.76;56.33;102445.56;4972491;28;96770;-76
2022/01/26 08:02:26;;;;;;;32.92;13.60;;;;;;;8.95;56.50;102452.56;4967172;28;98486;-76
2022/01/26 08:04:53;;;;;;;36.63;12.93;;;;;;;9.19;55.32;102460.41;4970901;28;97822;-77
2022/01/26 08:07:19;;;;;;;35.47;13.57;;;;;;;8.96;55.56;102459.59;4971062;28;99920;-76
2022/01/26 08:09:45;;;;;;;32.33;13.52;;;;;;;8.54;56.65;102455.22;4977622;28;97585;-79
2022/01/26 08:12:14;;;;;;;33.53;12.95;;;;;;;8.34;56.47;102457.88;4976193;28;97353;-75
2022/01/26 08:14:41;;;;;;;37.47;13.60;;;;;;;8.50;57.51;102460.50;4975717;28;99159;-77
2022/01/26 08:17:14;;;;;;;37.10;14.10;;;;;;;8.63;56.68;102472.81;4970170;28;99174;-76
2022/01/26 08:19:41;;;;;;;33.40;13.20;;;;;;;8.70;56.78;102479.84;4972581;28;97557;-76
2022/01/26 08:22:08;;;;;;;38.22;13.70;;;;;;;8.66;57.00;102460.50;4982555;28;97105;-75
2022/01/26 08:24:36;;;;;;;35.50;13.57;;;;;;;8.45;57.77;102459.66;4992517;28;97760;-75
2022/01/26 08:27:08;;;;;;;42.25;13.95;;;;;;;8.74;56.78;102465.78;4993462;28;97746;-76
2022/01/26 08:29:40;;;;;;;31.45;12.88;;;;;;;8.50;57.79;102464.03;4983617;28;97407;-78
2022/01/26 08:32:07;;;;;;;30.50;12.48;;;;;;;8.34;58.05;102460.50;4971328;28;97253;-77
2022/01/26 08:34:34;;;;;;;35.38;13.88;;;;;;;8.88;56.83;102453.47;4970106;28;99712;-77
2022/01/26 08:37:01;;;;;;;34.88;12.88;;;;;;;9.04;55.81;102442.03;4971919;28;99480;-77
2022/01/26 08:39:27;;;;;;;34.92;13.75;;;;;;;9.29;55.38;102437.53;4970671;28;97628;-76
2022/01/26 08:41:54;;;;;;;33.00;12.63;;;;;;;9.33;55.18;102443.66;4972733;28;99038;-77
2022/01/26 08:44:20;;;;;;;35.35;13.48;;;;;;;8.53;56.68;102450.00;4971442;28;99362;-75
2022/01/26 08:46:47;;;;;;;35.92;14.65;;;;;;;8.64;56.81;102451.75;4971406;28;99358;-77
2022/01/26 08:49:13;;;;;;;34.40;13.65;;;;;;;8.96;56.63;102448.19;4971166;28;97039;-76
2022/01/26 08:51:41;;;;;;;35.90;14.13;;;;;;;9.01;56.18;102444.66;4980602;28;96867;-75
2022/01/26 08:54:10;;;;;;;38.38;14.93;;;;;;;9.43;55.18;102435.72;4968418;28;99076;-76
2022/01/26 08:56:37;;;;;;;35.42;12.07;;;;;;;9.20;55.00;102441.06;4968003;28;99367;-76
2022/01/26 08:59:04;;;;;;;33.38;13.95;;;;;;;8.92;56.15;102436.78;4969142;28;96778;-76
2022/01/26 09:01:30;;;;;;;30.38;12.98;;;;;;;8.95;56.07;102449.94;4975851;28;96775;-75
2022/01/26 09:03:57;;;;;;;28.48;11.65;;;;;;;9.08;55.69;102456.94;4960845;28;100746;-76
2022/01/26 09:06:25;;;;;;;28.25;11.98;;;;;;;9.41;55.27;102449.81;4969989;28;99028;-78
2022/01/26 09:09:00;;;;;;;31.73;12.35;;;;;;;9.41;54.19;102460.34;4973264;28;96875;-78
2022/01/26 09:11:27;;;;;;;27.03;11.90;;;;;;;9.39;54.99;102459.47;4971803;28;96923;-76
2022/01/26 09:13:57;;;;;;;27.30;11.65;;;;;;;9.38;55.26;102456.00;4972465;28;98869;-75
2022/01/26 09:16:25;;;;;;;27.50;11.43;;;;;;;9.39;54.75;102462.13;4968908;28;100559;-76
2022/01/26 09:18:54;;;;;;;29.27;13.05;;;;;;;9.37;54.75;102461.25;4971132;28;98640;-76
2022/01/26 09:21:22;;;;;;;23.38;9.98;;;;;;;9.52;54.05;102450.63;4965997;28;96822;-75
2022/01/26 09:23:49;;;;;;;24.58;10.55;;;;;;;9.47;53.95;102460.34;4972481;28;99219;-76
2022/01/26 09:26:17;;;;;;;25.38;11.18;;;;;;;9.34;54.20;102463.91;4974570;28;100762;-75
2022/01/26 09:28:43;;;;;;;24.23;10.70;;;;;;;9.52;53.88;102462.06;4977128;28;96968;-75
2022/01/26 09:31:09;;;;;;;23.83;10.43;;;;;;;9.25;54.90;102469.22;4975038;28;96832;-75
2022/01/26 09:33:36;;;;;;;21.75;10.02;;;;;;;9.04;55.15;102473.66;4972669;28;97218;-77
2022/01/26 09:36:03;;;;;;;22.58;10.35;;;;;;;9.08;55.62;102462.22;4977745;28;99085;-78
2022/01/26 09:38:30;;;;;;;27.13;10.68;;;;;;;9.09;56.03;102468.38;4968789;28;98164;-78
2022/01/26 09:40:56;;;;;;;25.15;11.05;;;;;;;9.37;55.66;102450.72;4970013;28;96827;-78
2022/01/26 09:43:25;;;;;;;26.13;10.20;;;;;;;9.47;55.06;102444.50;4971684;28;99143;-77
2022/01/26 09:45:52;;;;;;;23.00;10.23;;;;;;;9.40;54.56;102456.84;4967792;28;99301;-77
2022/01/26 09:48:18;;;;;;;27.27;10.63;;;;;;;9.32;54.60;102455.13;4975236;28;97554;-77
2022/01/26 09:50:46;;;;;;;24.05;10.52;;;;;;;8.45;57.81;102451.75;4972503;28;96927;-78
2022/01/26 09:53:19;;;;;;;23.48;9.95;;;;;;;8.95;56.09;102441.16;4975257;28;99456;-77
2022/01/26 09:55:46;;;;;;;26.65;10.60;;;;;;;8.88;56.96;102448.19;4972921;28;99112;-77
2022/01/26 09:58:12;;;;;;;24.08;9.60;;;;;;;9.16;56.04;102460.44;4968818;28;96767;-77
2022/01/26 10:00:40;;;;;;;19.15;8.93;;;;;;;8.96;55.62;102464.88;4973495;28;96917;-77
2022/01/26 10:03:06;;;;;;;22.55;9.93;;;;;;;8.79;56.58;102472.78;4974120;28;97683;-79
2022/01/26 10:05:41;;;;;;;23.88;9.85;;;;;;;8.90;56.80;102470.16;4975765;28;99661;-77
2022/01/26 10:08:13;;;;;;;22.52;10.65;;;;;;;8.74;57.18;102464.00;4975338;28;96757;-76
2022/01/26 10:17:06;;;;;;;21.20;10.38;;;;;;;8.71;56.99;102474.56;4974970;28;97136;-76
2022/01/26 10:19:24;;;;;;;23.30;10.13;;;;;;;8.72;56.31;102467.56;4975134;28;96906;-75
2022/01/26 10:21:52;;;;;;;19.40;9.30;;;;;;;8.77;56.19;102471.06;4975339;28;96823;-75
2022/01/26 10:24:20;;;;;;;19.50;8.82;;;;;;;8.94;56.35;102478.94;4977477;28;99490;-76
2022/01/26 10:26:57;;;;;;;22.48;9.50;;;;;;;8.63;56.10;102467.53;4973466;28;99446;-76
2022/01/26 10:29:24;;;;;;;20.63;9.18;;;;;;;8.75;56.89;102465.78;4977151;28;96698;-77
2022/01/26 10:31:51;;;;;;;22.10;9.40;;;;;;;8.85;56.28;102460.50;4978078;28;96824;-76
2022/01/26 10:34:22;;;;;;;19.13;9.18;;;;;;;9.10;55.58;102459.59;4976066;28;98874;-76
2022/01/26 10:36:50;;;;;;;19.33;8.55;;;;;;;8.75;55.82;102464.91;4976260;28;98972;-76
2022/01/26 10:39:21;;;;;;;19.52;8.80;;;;;;;8.46;56.76;102459.66;4980127;28;97223;-76
2022/01/26 10:41:50;;;;;;;19.00;9.25;;;;;;;8.83;56.19;102456.97;4978282;28;96897;-76
2022/01/26 10:44:18;;;;;;;20.38;9.43;;;;;;;8.13;57.77;102455.19;4974903;28;99270;-75
2022/01/26 10:46:45;;;;;;;16.63;8.27;;;;;;;9.03;56.48;102455.19;4980182;28;97628;-75
2022/01/26 10:49:19;;;;;;;19.95;9.25;;;;;;;9.10;56.34;102465.72;4984947;28;97442;-74
2022/01/26 10:52:00;;;;;;;17.08;8.35;;;;;;;9.17;54.56;102463.97;4988448;28;96978;-75
2022/01/26 10:54:36;;;;;;;15.73;7.70;;;;;;;8.82;55.56;102458.75;4991785;28;101233;-75
2022/01/26 10:57:04;;;;;;;15.87;8.07;;;;;;;8.76;55.67;102454.34;4983118;28;97773;-75
2022/01/26 10:59:34;;;;;;;14.30;6.97;;;;;;;9.26;54.62;102450.72;4977400;28;96837;-74
2022/01/26 11:02:02;;;;;;;14.55;6.68;;;;;;;8.97;54.23;102456.09;4970087;28;96920;-76
2022/01/26 11:04:30;;;;;;;15.68;7.75;;;;;;;8.89;54.55;102457.84;4971401;28;98311;-75
2022/01/26 11:06:57;;;;;;;12.38;6.43;;;;;;;9.19;53.31;102454.25;4967591;28;99021;-75
2022/01/26 11:09:27;;;;;;;14.88;6.50;;;;;;;8.69;54.58;102455.25;4974853;28;99107;-74
2022/01/26 11:12:00;;;;;;;12.77;6.45;;;;;;;9.00;53.61;102458.72;4975192;28;97739;-78
2022/01/26 11:14:39;;;;;;;11.57;5.72;;;;;;;8.62;54.63;102457.88;4970461;28;99617;-76
2022/01/26 11:17:05;;;;;;;11.77;5.93;;;;;;;8.37;55.46;102459.63;4975265;28;99030;-77
2022/01/26 11:19:42;;;;;;;10.68;5.72;;;;;;;9.30;53.62;102462.16;4971835;28;98352;-77
2022/01/26 11:22:09;;;;;;;10.40;5.45;;;;;;;8.20;55.76;102458.72;4975111;28;97658;-77
2022/01/26 11:24:43;;;;;;;15.10;6.57;;;;;;;8.72;55.71;102452.63;4974598;28;99240;-77
2022/01/26 11:27:09;;;;;;;14.30;6.40;;;;;;;9.15;54.26;102441.97;4968997;28;99050;-76
2022/01/26 11:29:41;;;;;;;11.15;5.70;;;;;;;8.79;54.85;102448.22;4974102;28;96871;-77
2022/01/26 11:32:13;;;;;;;10.75;6.03;;;;;;;8.44;55.53;102455.25;4971394;28;96782;-76
2022/01/26 11:34:42;;;;;;;11.45;5.90;;;;;;;8.12;56.56;102445.53;4971920;28;99325;-75
2022/01/26 11:37:12;;;;;;;11.80;6.13;;;;;;;8.74;55.89;102445.56;4974846;28;99507;-76
2022/01/26 11:45:17;;;;;;;12.48;6.25;;;;;;;7.50;57.63;102435.69;4972873;28;97194;-77
2022/01/26 11:48:01;;;;;;;16.20;6.68;;;;;;;8.28;57.08;102430.59;4976859;28;97738;-77
2022/01/26 11:50:30;;;;;;;13.80;7.20;;;;;;;8.14;57.31;102433.22;4973170;28;98367;-76
2022/01/26 11:53:01;;;;;;;15.45;7.63;;;;;;;8.17;56.85;102435.00;4976278;28;98102;-76
2022/01/26 11:55:38;;;;;;;16.50;6.93;;;;;;;8.29;57.15;102433.25;4973835;28;98900;-77
2022/01/26 11:58:09;;;;;;;14.57;6.85;;;;;;;8.18;57.34;102427.09;4975119;28;98220;-76
2022/01/26 12:00:44;;;;;;;16.40;7.03;;;;;;;8.29;56.88;102414.81;4976377;28;96872;-76
2022/01/26 12:03:26;;;;;;;15.35;7.20;;;;;;;8.05;57.57;102412.16;4971570;28;96807;-77
2022/01/26 12:05:56;;;;;;;18.05;8.00;;;;;;;8.53;56.58;102403.44;4975400;28;99166;-76
2022/01/26 12:08:38;;;;;;;17.00;8.20;;;;;;;8.65;55.73;102400.78;4975106;28;97722;-76
2022/01/26 12:11:07;;;;;;;19.85;8.07;;;;;;;8.11;56.21;102399.00;4971447;28;98520;-76
2022/01/26 12:13:37;;;;;;;22.42;8.38;;;;;;;8.10;57.76;102394.63;4973419;28;98813;-75
2022/01/26 12:16:09;;;;;;;18.45;7.88;;;;;;;8.42;56.47;102404.31;4976456;28;99462;-76
2022/01/26 12:18:42;;;;;;;16.92;7.53;;;;;;;7.72;56.66;102405.09;4973019;28;98680;-77
2022/01/26 12:32:45;;;;;;;18.02;8.18;;;;;;;8.11;56.86;102393.75;4973995;28;96879;-76
2022/01/26 12:35:21;;;;;;;13.82;7.07;;;;;;;7.83;58.26;102395.47;4975671;28;98114;-77
2022/01/26 12:37:57;;;;;;;12.40;6.03;;;;;;;8.08;56.17;102383.19;4971844;28;100520;-77
2022/01/26 12:43:12;;;;;;;15.32;6.25;;;;;;;7.94;56.36;102342.84;4972037;28;98819;-76
2022/01/26 12:45:39;;;;;;;16.80;7.10;;;;;;;8.23;55.72;102343.72;4967304;28;98529;-78
2022/01/26 12:48:09;;;;;;;16.67;6.47;;;;;;;8.35;55.94;102351.63;4969470;28;99302;-76
2022/01/26 12:50:38;;;;;;;15.60;6.60;;;;;;;8.83;54.68;102349.78;4973746;28;99653;-79
2022/01/26 12:53:07;;;;;;;17.10;6.38;;;;;;;8.95;53.84;102343.59;4976520;28;96787;-80
2022/01/26 12:55:36;;;;;;;14.60;6.45;;;;;;;8.68;54.78;102344.56;4974971;28;97346;-82
2022/01/26 12:58:04;;;;;;;21.70;7.88;;;;;;;8.62;55.18;102350.72;4975093;28;98936;-78
2022/01/26 13:00:42;;;;;;;14.98;6.60;;;;;;;8.19;54.99;102351.63;4974893;28;99142;-80
2022/01/26 13:03:13;;;;;;;17.10;6.70;;;;;;;8.09;55.83;102363.91;4970955;28;98393;-75
2022/01/26 13:05:40;;;;;;;15.23;7.20;;;;;;;7.85;55.71;102370.03;4967596;28;98573;-78
2022/01/26 13:08:10;;;;;;;16.45;7.15;;;;;;;8.17;56.03;102351.63;4972044;28;98214;-77
2022/01/26 13:10:37;;;;;;;18.77;7.35;;;;;;;8.23;55.29;102354.25;4972199;28;97692;-76
2022/01/26 13:13:17;;;;;;;16.83;7.20;;;;;;;8.05;55.35;102359.53;4969550;28;96955;-78
2022/01/26 13:15:53;;;;;;;23.98;8.93;;;;;;;7.68;55.89;102365.63;4967957;28;96817;-77
2022/01/26 13:18:44;;;;;;;17.90;7.17;;;;;;;7.86;55.81;102355.13;4974894;28;99698;-78
2022/01/26 13:21:39;;;;;;;12.30;6.22;;;;;;;7.95;55.88;102352.47;4974946;28;98810;-78
2022/01/26 13:24:27;;;;;;;17.70;7.55;;;;;;;7.54;56.10;102355.06;4978530;28;96690;-77
2022/01/26 13:27:02;;;;;;;16.55;7.60;;;;;;;7.42;56.42;102360.25;4976200;28;98009;-78
2022/01/26 13:29:39;;;;;;;17.98;8.30;;;;;;;7.93;56.29;102341.97;4998179;28;98975;-77
2022/01/26 13:32:29;;;;;;;24.52;8.82;;;;;;;7.77;56.12;102337.56;4995155;28;98009;-77
2022/01/26 13:37:51;;;;;;;23.13;8.32;;;;;;;7.79;55.89;102335.81;4993301;28;99550;-76
2022/01/26 13:40:37;;;;;;;21.58;8.85;;;;;;;7.32;56.24;102335.72;4979497;28;101623;-80
2022/01/26 13:43:34;;;;;;;22.23;9.15;;;;;;;8.01;55.73;102323.53;4970621;28;99156;-76
2022/01/26 13:46:37;;;;;;;34.85;11.68;;;;;;;7.91;54.84;102324.41;4970954;28;97054;-76
2022/01/26 13:49:15;;;;;;;33.10;11.02;;;;;;;8.07;55.39;102312.13;4969519;28;96915;-75
2022/01/26 13:51:54;;;;;;;39.78;13.80;;;;;;;8.16;54.26;102312.09;4970660;28;99100;-76
2022/01/26 13:54:43;;;;;;;35.70;11.93;;;;;;;8.16;54.41;102313.00;4969463;28;99704;-75
2022/01/26 13:57:36;;;;;;;36.40;11.68;;;;;;;8.52;54.01;102308.59;4968891;28;96850;-77
2022/01/26 14:00:00;;;;;;;32.15;11.98;;;;;;;8.46;53.68;102301.59;4966597;28;96856;-78
2022/01/26 14:02:30;;;;;;;32.67;11.10;;;;;;;8.27;53.03;102300.69;4970090;28;99255;-77